Chrisanthi — SX7108 — position and weather

sailwx.info

Track history (hours):
 
Tides and Currents Weather Stations Pressure Air Temp Water Temp Dewpoint Dewpoint Depression Visibility Wind Speed Wind Dir Waves Ship Positions

Chrisanthi

Last reported at 2017-Apr-23 19:30 UTC. Time now 2017-Apr-23 19:42 UTC.
Position N 37°48' E 023°40'.

Length 56 m; draft 3.9 m.

Type: Ship (hazmat cat A). MMSI: 237009100.

Date/timePositionNaut miles runAvg speedWind from/ knotsBaromVisibWave heightAir tempDewpointWater temp
2017-Apr-23 19:30N 37°48' E 023°40'510.1
2017-Apr-23 19:01N 37°44' E 023°44'5 9.5
2017-Apr-23 18:30N 37°41' E 023°48'510.1
2017-Apr-23 17:59N 37°39' E 023°54'710.2
2017-Apr-23 17:18N 37°36' E 024°02'38 9.8
2017-Apr-23 13:27N 37°20' E 024°45'510.2
2017-Apr-23 13:00N 37°17' E 024°50'510.1
2017-Apr-23 12:31N 37°14' E 024°55'510.0
2017-Apr-23 12:00N 37°11' E 024°60'510.0
2017-Apr-23 11:30N 37°07' E 025°04'4 0.6
2017-Apr-23 05:26N 37°05' E 025°09'0 0.1
2017-Apr-23 05:01N 37°06' E 025°09'0 0.0
2017-Apr-23 04:30N 37°06' E 025°09'0 0.0
2017-Apr-23 03:48N 37°06' E 025°09'0 0.0
2017-Apr-23 03:23N 37°06' E 025°09'0 0.0
2017-Apr-23 02:43N 37°06' E 025°09'0 0.0
2017-Apr-23 02:30N 37°06' E 025°09'0 0.0
2017-Apr-23 01:59N 37°06' E 025°09'0 0.0
2017-Apr-23 01:28N 37°06' E 025°09'0 0.0
2017-Apr-23 01:00N 37°06' E 025°09'0 0.0
2017-Apr-23 00:29N 37°06' E 025°09'0 0.0
2017-Apr-23 00:00N 37°06' E 025°09'0 0.0
2017-Apr-22 23:27N 37°06' E 025°09'0 0.0
2017-Apr-22 22:58N 37°06' E 025°09'0 0.0
2017-Apr-22 22:27N 37°06' E 025°09'0 0.1
2017-Apr-22 22:00N 37°06' E 025°09'1 1.3
2017-Apr-22 21:24N 37°05' E 025°08'4 9.6
2017-Apr-22 20:56N 37°09' E 025°11'4 9.8
2017-Apr-22 20:30N 37°10' E 025°16'5 9.5
2017-Apr-22 20:00N 37°07' E 025°21'1 2.5
2017-Apr-22 19:30N 37°06' E 025°22'0 0.0
2017-Apr-22 19:00N 37°06' E 025°22'0 0.0
2017-Apr-22 18:30N 37°06' E 025°22'0 0.0
2017-Apr-22 18:00N 37°06' E 025°22'0 0.0
2017-Apr-22 17:30N 37°06' E 025°22'0 0.0
2017-Apr-22 17:00N 37°06' E 025°22'4 7.1
2017-Apr-22 16:30N 37°04' E 025°19'  
Track history (hours):
 
Tides and Currents Weather Stations Pressure Air Temp Water Temp Dewpoint Dewpoint Depression Visibility Wind Speed Wind Dir Waves Ship Positions

Chrisanthi

Last reported at 2017-Apr-23 19:30 UTC. Time now 2017-Apr-23 19:42 UTC.
Position N 37°48' E 023°40'.

Length 56 m; draft 3.9 m.

Type: Ship (hazmat cat A). MMSI: 237009100.

Date/timePositionNaut miles runAvg speedWind from/ knotsBaromVisibWave heightAir tempDewpointWater temp
2017-Apr-23 19:30N 37°48' E 023°40'510.1
2017-Apr-23 19:01N 37°44' E 023°44'5 9.5
2017-Apr-23 18:30N 37°41' E 023°48'510.1
2017-Apr-23 17:59N 37°39' E 023°54'710.2
2017-Apr-23 17:18N 37°36' E 024°02'38 9.8
2017-Apr-23 13:27N 37°20' E 024°45'510.2
2017-Apr-23 13:00N 37°17' E 024°50'510.1
2017-Apr-23 12:31N 37°14' E 024°55'510.0
2017-Apr-23 12:00N 37°11' E 024°60'510.0
2017-Apr-23 11:30N 37°07' E 025°04'4 0.6
2017-Apr-23 05:26N 37°05' E 025°09'0 0.1
2017-Apr-23 05:01N 37°06' E 025°09'0 0.0
2017-Apr-23 04:30N 37°06' E 025°09'0 0.0
2017-Apr-23 03:48N 37°06' E 025°09'0 0.0
2017-Apr-23 03:23N 37°06' E 025°09'0 0.0
2017-Apr-23 02:43N 37°06' E 025°09'0 0.0
2017-Apr-23 02:30N 37°06' E 025°09'0 0.0
2017-Apr-23 01:59N 37°06' E 025°09'0 0.0
2017-Apr-23 01:28N 37°06' E 025°09'0 0.0
2017-Apr-23 01:00N 37°06' E 025°09'0 0.0
2017-Apr-23 00:29N 37°06' E 025°09'0 0.0
2017-Apr-23 00:00N 37°06' E 025°09'0 0.0
2017-Apr-22 23:27N 37°06' E 025°09'0 0.0
2017-Apr-22 22:58N 37°06' E 025°09'0 0.0
2017-Apr-22 22:27N 37°06' E 025°09'0 0.1
2017-Apr-22 22:00N 37°06' E 025°09'1 1.3
2017-Apr-22 21:24N 37°05' E 025°08'4 9.6
2017-Apr-22 20:56N 37°09' E 025°11'4 9.8
2017-Apr-22 20:30N 37°10' E 025°16'5 9.5
2017-Apr-22 20:00N 37°07' E 025°21'1 2.5
2017-Apr-22 19:30N 37°06' E 025°22'0 0.0
2017-Apr-22 19:00N 37°06' E 025°22'0 0.0
2017-Apr-22 18:30N 37°06' E 025°22'0 0.0
2017-Apr-22 18:00N 37°06' E 025°22'0 0.0
2017-Apr-22 17:30N 37°06' E 025°22'0 0.0
2017-Apr-22 17:00N 37°06' E 025°22'4 7.1
2017-Apr-22 16:30N 37°04' E 025°19'  

Dump ship's entire track history